This is the latest recevied weather packets stored in our database for station/object UA1CAS-13. If no packets are shown the sender has not sent any weather packets the latest 1 day(s).
| Time | Temp. | Humidity | Pressure | Rain* | Wind** | Luminosity | Snow |
|---|---|---|---|---|---|---|---|
| 1778098697 | 8.33° C | 57% | 1012 hPa | - | - | - | - |
| 1778097796 | 8.89° C | 55% | 1012 hPa | - | - | - | - |
| 1778086983 | 11.67° C | 29% | 1011 hPa | - | - | - | - |
| 1778086082 | 12.22° C | 30% | 1011 hPa | - | - | - | - |
| 1778085181 | 12.78° C | 28% | 1011 hPa | - | - | - | - |
| 1778076168 | 15° C | 25% | 1010 hPa | - | - | - | - |
| 1778074366 | 16.67° C | 22% | 1010 hPa | - | - | - | - |
| 1778073465 | 16.67° C | 23% | 1010 hPa | - | - | - | - |
| 1778066256 | 12.78° C | 34% | 1009 hPa | - | - | - | - |
| 1778059948 | 15° C | 24% | 1008 hPa | - | - | - | - |
| 1778059047 | 16.11° C | 25% | 1008 hPa | - | - | - | - |
| 1778057245 | 14.44° C | 28% | 1008 hPa | - | - | - | - |
| 1778056344 | 14.44° C | 30% | 1008 hPa | - | - | - | - |
| 1778050936 | 14.44° C | 37% | 1007 hPa | - | - | - | - |
| 1778049134 | 15° C | 37% | 1007 hPa | - | - | - | - |
| 1778048233 | 12.22° C | 44% | 1007 hPa | - | - | - | - |
| 1778047332 | 12.78° C | 48% | 1007 hPa | - | - | - | - |
| 1778045530 | 11.11° C | 52% | 1007 hPa | - | - | - | - |
| 1778044629 | 10.56° C | 58% | 1006 hPa | - | - | - | - |
| 1778043728 | 8.33° C | 65% | 1006 hPa | - | - | - | - |
| 1778042827 | 8.33° C | 64% | 1006 hPa | - | - | - | - |
| 1778037420 | 7.22° C | 69% | 1005 hPa | - | - | - | - |
| 1778036519 | 5.56° C | 74% | 1005 hPa | - | - | - | - |
| 1778035618 | 5.56° C | 76% | 1005 hPa | - | - | - | - |
| 1778033815 | 5.56° C | 82% | 1005 hPa | - | - | - | - |
* Rain since midnight (hover to see other rain measurements)
** Current wind speed in m/s (hover to see current wind gust speed)